sensor_id;sensor_type;location;lat;lon;timestamp;P1;durP1;ratioP1;P2;durP2;ratioP2
35290;SDS011;21411;50.024;19.220;2023-05-17T00:01:14;21.60;;;19.60;;
35290;SDS011;21411;50.024;19.220;2023-05-17T00:03:41;19.70;;;17.80;;
35290;SDS011;21411;50.024;19.220;2023-05-17T00:06:07;20.50;;;18.50;;
35290;SDS011;21411;50.024;19.220;2023-05-17T00:08:34;21.70;;;19.70;;
35290;SDS011;21411;50.024;19.220;2023-05-17T00:11:00;21.70;;;19.50;;
35290;SDS011;21411;50.024;19.220;2023-05-17T00:13:27;22.10;;;20.10;;
35290;SDS011;21411;50.024;19.220;2023-05-17T00:15:53;22.50;;;20.30;;
35290;SDS011;21411;50.024;19.220;2023-05-17T00:18:20;22.00;;;20.00;;
35290;SDS011;21411;50.024;19.220;2023-05-17T00:20:46;20.70;;;18.80;;
35290;SDS011;21411;50.024;19.220;2023-05-17T00:23:13;21.70;;;19.60;;
35290;SDS011;21411;50.024;19.220;2023-05-17T00:25:39;24.10;;;21.70;;
35290;SDS011;21411;50.024;19.220;2023-05-17T00:28:06;27.40;;;24.70;;
35290;SDS011;21411;50.024;19.220;2023-05-17T00:30:32;29.50;;;26.40;;
35290;SDS011;21411;50.024;19.220;2023-05-17T00:32:59;27.50;;;24.70;;
35290;SDS011;21411;50.024;19.220;2023-05-17T00:35:25;27.20;;;24.50;;
35290;SDS011;21411;50.024;19.220;2023-05-17T00:37:52;26.90;;;24.10;;
35290;SDS011;21411;50.024;19.220;2023-05-17T00:40:18;26.10;;;23.50;;
35290;SDS011;21411;50.024;19.220;2023-05-17T00:42:45;27.60;;;24.70;;
35290;SDS011;21411;50.024;19.220;2023-05-17T00:45:11;25.90;;;23.20;;
35290;SDS011;21411;50.024;19.220;2023-05-17T00:47:38;22.50;;;20.30;;
35290;SDS011;21411;50.024;19.220;2023-05-17T00:50:05;22.00;;;19.90;;
35290;SDS011;21411;50.024;19.220;2023-05-17T00:52:31;21.30;;;19.40;;
35290;SDS011;21411;50.024;19.220;2023-05-17T00:54:58;21.30;;;19.20;;
35290;SDS011;21411;50.024;19.220;2023-05-17T00:57:24;21.30;;;19.20;;
35290;SDS011;21411;50.024;19.220;2023-05-17T00:59:51;21.10;;;18.90;;
35290;SDS011;21411;50.024;19.220;2023-05-17T01:02:20;22.80;;;20.50;;
35290;SDS011;21411;50.024;19.220;2023-05-17T01:04:47;21.00;;;19.00;;
35290;SDS011;21411;50.024;19.220;2023-05-17T01:07:14;18.90;;;17.30;;
35290;SDS011;21411;50.024;19.220;2023-05-17T01:09:41;21.10;;;19.10;;
35290;SDS011;21411;50.024;19.220;2023-05-17T01:12:23;18.60;;;16.90;;
35290;SDS011;21411;50.024;19.220;2023-05-17T01:17:34;20.70;;;18.60;;
35290;SDS011;21411;50.024;19.220;2023-05-17T01:27:54;20.00;;;18.10;;
35290;SDS011;21411;50.024;19.220;2023-05-17T01:30:25;19.10;;;17.20;;
35290;SDS011;21411;50.024;19.220;2023-05-17T01:32:52;21.00;;;18.90;;
35290;SDS011;21411;50.024;19.220;2023-05-17T01:35:22;20.70;;;18.60;;
35290;SDS011;21411;50.024;19.220;2023-05-17T01:37:49;17.80;;;16.20;;
35290;SDS011;21411;50.024;19.220;2023-05-17T01:40:17;19.80;;;17.90;;
35290;SDS011;21411;50.024;19.220;2023-05-17T01:42:46;18.60;;;16.80;;
35290;SDS011;21411;50.024;19.220;2023-05-17T01:45:23;17.60;;;15.80;;
35290;SDS011;21411;50.024;19.220;2023-05-17T01:47:59;16.80;;;15.30;;
35290;SDS011;21411;50.024;19.220;2023-05-17T01:50:49;17.60;;;15.90;;
35290;SDS011;21411;50.024;19.220;2023-05-17T01:53:22;15.40;;;14.00;;
35290;SDS011;21411;50.024;19.220;2023-05-17T01:58:58;16.50;;;14.90;;
35290;SDS011;21411;50.024;19.220;2023-05-17T02:01:27;15.80;;;14.30;;
35290;SDS011;21411;50.024;19.220;2023-05-17T02:03:57;17.20;;;15.60;;
35290;SDS011;21411;50.024;19.220;2023-05-17T02:06:23;14.80;;;13.30;;
35290;SDS011;21411;50.024;19.220;2023-05-17T02:08:50;16.10;;;14.70;;
35290;SDS011;21411;50.024;19.220;2023-05-17T02:11:16;15.70;;;14.10;;
35290;SDS011;21411;50.024;19.220;2023-05-17T02:13:43;19.20;;;12.90;;
35290;SDS011;21411;50.024;19.220;2023-05-17T02:16:09;15.00;;;13.70;;
35290;SDS011;21411;50.024;19.220;2023-05-17T02:18:37;16.60;;;15.00;;
35290;SDS011;21411;50.024;19.220;2023-05-17T02:21:05;15.80;;;14.40;;
35290;SDS011;21411;50.024;19.220;2023-05-17T02:23:31;17.00;;;15.30;;
35290;SDS011;21411;50.024;19.220;2023-05-17T02:25:58;19.20;;;17.30;;
35290;SDS011;21411;50.024;19.220;2023-05-17T02:28:24;19.50;;;17.60;;
35290;SDS011;21411;50.024;19.220;2023-05-17T02:30:52;19.60;;;17.70;;
35290;SDS011;21411;50.024;19.220;2023-05-17T02:33:19;21.20;;;19.10;;
35290;SDS011;21411;50.024;19.220;2023-05-17T02:35:47;20.40;;;18.30;;
35290;SDS011;21411;50.024;19.220;2023-05-17T02:38:14;21.30;;;19.10;;
35290;SDS011;21411;50.024;19.220;2023-05-17T02:40:41;21.60;;;19.40;;
35290;SDS011;21411;50.024;19.220;2023-05-17T02:43:08;22.40;;;20.10;;
35290;SDS011;21411;50.024;19.220;2023-05-17T02:45:34;22.10;;;19.90;;
35290;SDS011;21411;50.024;19.220;2023-05-17T02:48:00;21.60;;;19.50;;
35290;SDS011;21411;50.024;19.220;2023-05-17T02:50:27;20.60;;;18.40;;
35290;SDS011;21411;50.024;19.220;2023-05-17T02:52:53;19.30;;;17.50;;
35290;SDS011;21411;50.024;19.220;2023-05-17T02:55:20;20.00;;;18.00;;
35290;SDS011;21411;50.024;19.220;2023-05-17T02:57:46;18.00;;;16.20;;
35290;SDS011;21411;50.024;19.220;2023-05-17T03:00:13;18.20;;;16.40;;
35290;SDS011;21411;50.024;19.220;2023-05-17T03:02:41;18.70;;;16.80;;
35290;SDS011;21411;50.024;19.220;2023-05-17T03:05:08;19.10;;;17.20;;
35290;SDS011;21411;50.024;19.220;2023-05-17T03:07:35;17.00;;;15.40;;
35290;SDS011;21411;50.024;19.220;2023-05-17T03:10:02;16.10;;;14.60;;
35290;SDS011;21411;50.024;19.220;2023-05-17T03:12:28;14.70;;;13.30;;
35290;SDS011;21411;50.024;19.220;2023-05-17T03:14:55;14.40;;;13.20;;
35290;SDS011;21411;50.024;19.220;2023-05-17T03:17:21;15.30;;;14.00;;
35290;SDS011;21411;50.024;19.220;2023-05-17T03:19:48;14.60;;;13.20;;
35290;SDS011;21411;50.024;19.220;2023-05-17T03:22:14;16.00;;;14.60;;
35290;SDS011;21411;50.024;19.220;2023-05-17T03:24:41;17.30;;;15.70;;
35290;SDS011;21411;50.024;19.220;2023-05-17T03:27:07;16.90;;;15.20;;
35290;SDS011;21411;50.024;19.220;2023-05-17T03:29:34;15.90;;;14.30;;
35290;SDS011;21411;50.024;19.220;2023-05-17T03:32:00;16.80;;;15.30;;
35290;SDS011;21411;50.024;19.220;2023-05-17T03:34:27;18.10;;;16.30;;
35290;SDS011;21411;50.024;19.220;2023-05-17T03:36:53;17.50;;;15.90;;
35290;SDS011;21411;50.024;19.220;2023-05-17T03:39:20;17.10;;;15.40;;
35290;SDS011;21411;50.024;19.220;2023-05-17T03:41:46;16.80;;;15.40;;
35290;SDS011;21411;50.024;19.220;2023-05-17T03:44:13;16.60;;;15.10;;
35290;SDS011;21411;50.024;19.220;2023-05-17T03:46:40;17.20;;;15.70;;
35290;SDS011;21411;50.024;19.220;2023-05-17T03:49:07;16.40;;;15.00;;
35290;SDS011;21411;50.024;19.220;2023-05-17T03:51:33;15.10;;;13.70;;
35290;SDS011;21411;50.024;19.220;2023-05-17T03:54:00;16.20;;;14.60;;
35290;SDS011;21411;50.024;19.220;2023-05-17T03:56:26;13.80;;;12.70;;
35290;SDS011;21411;50.024;19.220;2023-05-17T03:58:53;13.20;;;12.10;;
35290;SDS011;21411;50.024;19.220;2023-05-17T04:01:20;14.30;;;13.00;;
35290;SDS011;21411;50.024;19.220;2023-05-17T04:03:46;13.30;;;12.30;;
35290;SDS011;21411;50.024;19.220;2023-05-17T04:06:13;13.00;;;12.00;;
35290;SDS011;21411;50.024;19.220;2023-05-17T04:08:42;11.20;;;10.30;;
35290;SDS011;21411;50.024;19.220;2023-05-17T04:11:08;12.90;;;11.80;;
35290;SDS011;21411;50.024;19.220;2023-05-17T04:13:38;11.50;;;10.50;;
35290;SDS011;21411;50.024;19.220;2023-05-17T04:16:07;12.30;;;11.30;;
35290;SDS011;21411;50.024;19.220;2023-05-17T04:18:34;10.80;;;9.80;;
35290;SDS011;21411;50.024;19.220;2023-05-17T04:21:02;10.60;;;9.70;;
35290;SDS011;21411;50.024;19.220;2023-05-17T04:23:29;11.20;;;10.30;;
35290;SDS011;21411;50.024;19.220;2023-05-17T04:25:57;11.70;;;10.70;;
35290;SDS011;21411;50.024;19.220;2023-05-17T04:28:23;11.70;;;10.70;;
35290;SDS011;21411;50.024;19.220;2023-05-17T04:30:51;11.00;;;10.10;;
35290;SDS011;21411;50.024;19.220;2023-05-17T04:33:18;12.00;;;10.90;;
35290;SDS011;21411;50.024;19.220;2023-05-17T04:35:45;11.60;;;10.70;;
35290;SDS011;21411;50.024;19.220;2023-05-17T04:38:12;11.50;;;10.60;;
35290;SDS011;21411;50.024;19.220;2023-05-17T04:40:38;13.00;;;11.90;;
35290;SDS011;21411;50.024;19.220;2023-05-17T04:43:05;12.80;;;11.80;;
35290;SDS011;21411;50.024;19.220;2023-05-17T04:45:32;13.20;;;12.00;;
35290;SDS011;21411;50.024;19.220;2023-05-17T04:47:59;13.70;;;12.60;;
35290;SDS011;21411;50.024;19.220;2023-05-17T04:50:25;13.80;;;12.60;;
35290;SDS011;21411;50.024;19.220;2023-05-17T04:52:52;14.00;;;12.60;;
35290;SDS011;21411;50.024;19.220;2023-05-17T04:55:19;12.80;;;11.60;;
35290;SDS011;21411;50.024;19.220;2023-05-17T04:57:45;12.80;;;11.70;;
35290;SDS011;21411;50.024;19.220;2023-05-17T05:00:12;13.80;;;12.60;;
35290;SDS011;21411;50.024;19.220;2023-05-17T05:02:40;13.00;;;11.90;;
35290;SDS011;21411;50.024;19.220;2023-05-17T05:05:07;12.70;;;11.50;;
35290;SDS011;21411;50.024;19.220;2023-05-17T05:07:37;12.30;;;11.20;;
35290;SDS011;21411;50.024;19.220;2023-05-17T05:10:05;9.80;;;9.00;;
35290;SDS011;21411;50.024;19.220;2023-05-17T05:12:32;10.00;;;9.20;;
35290;SDS011;21411;50.024;19.220;2023-05-17T05:14:58;9.10;;;8.30;;
35290;SDS011;21411;50.024;19.220;2023-05-17T05:17:25;9.10;;;8.30;;
35290;SDS011;21411;50.024;19.220;2023-05-17T05:19:51;8.80;;;8.10;;
35290;SDS011;21411;50.024;19.220;2023-05-17T05:22:18;9.10;;;8.30;;
35290;SDS011;21411;50.024;19.220;2023-05-17T05:24:44;9.30;;;8.40;;
35290;SDS011;21411;50.024;19.220;2023-05-17T05:27:11;8.80;;;8.10;;
35290;SDS011;21411;50.024;19.220;2023-05-17T05:29:37;9.70;;;8.90;;
35290;SDS011;21411;50.024;19.220;2023-05-17T05:32:04;10.20;;;9.30;;
35290;SDS011;21411;50.024;19.220;2023-05-17T05:34:31;11.50;;;10.60;;
35290;SDS011;21411;50.024;19.220;2023-05-17T05:36:57;14.70;;;13.40;;
35290;SDS011;21411;50.024;19.220;2023-05-17T05:39:24;15.20;;;13.90;;
35290;SDS011;21411;50.024;19.220;2023-05-17T05:41:50;17.00;;;15.50;;
35290;SDS011;21411;50.024;19.220;2023-05-17T05:44:17;16.30;;;14.70;;
35290;SDS011;21411;50.024;19.220;2023-05-17T05:46:43;15.40;;;14.10;;
35290;SDS011;21411;50.024;19.220;2023-05-17T05:49:10;15.10;;;13.80;;
35290;SDS011;21411;50.024;19.220;2023-05-17T05:51:36;14.20;;;13.00;;
35290;SDS011;21411;50.024;19.220;2023-05-17T05:54:03;14.30;;;12.90;;
35290;SDS011;21411;50.024;19.220;2023-05-17T05:56:29;14.40;;;13.10;;
35290;SDS011;21411;50.024;19.220;2023-05-17T05:58:56;15.80;;;14.40;;
35290;SDS011;21411;50.024;19.220;2023-05-17T06:01:23;15.80;;;14.40;;
35290;SDS011;21411;50.024;19.220;2023-05-17T06:03:50;15.70;;;14.20;;
35290;SDS011;21411;50.024;19.220;2023-05-17T06:06:16;14.70;;;13.30;;
35290;SDS011;21411;50.024;19.220;2023-05-17T06:08:44;15.50;;;14.10;;
35290;SDS011;21411;50.024;19.220;2023-05-17T06:11:12;14.00;;;12.70;;
35290;SDS011;21411;50.024;19.220;2023-05-17T06:13:39;13.40;;;12.30;;
35290;SDS011;21411;50.024;19.220;2023-05-17T06:16:06;13.40;;;12.30;;
35290;SDS011;21411;50.024;19.220;2023-05-17T06:18:32;13.70;;;12.60;;
35290;SDS011;21411;50.024;19.220;2023-05-17T06:20:59;12.90;;;11.70;;
35290;SDS011;21411;50.024;19.220;2023-05-17T06:23:25;13.60;;;12.40;;
35290;SDS011;21411;50.024;19.220;2023-05-17T06:25:52;14.50;;;13.20;;
35290;SDS011;21411;50.024;19.220;2023-05-17T06:28:18;14.10;;;12.80;;
35290;SDS011;21411;50.024;19.220;2023-05-17T06:30:45;14.50;;;13.20;;
35290;SDS011;21411;50.024;19.220;2023-05-17T06:33:12;15.30;;;13.90;;
35290;SDS011;21411;50.024;19.220;2023-05-17T06:35:38;14.60;;;13.30;;
35290;SDS011;21411;50.024;19.220;2023-05-17T06:38:05;13.00;;;11.90;;
35290;SDS011;21411;50.024;19.220;2023-05-17T06:40:31;13.50;;;12.30;;
35290;SDS011;21411;50.024;19.220;2023-05-17T06:42:58;14.20;;;12.90;;
35290;SDS011;21411;50.024;19.220;2023-05-17T06:45:24;14.90;;;13.60;;
35290;SDS011;21411;50.024;19.220;2023-05-17T06:47:52;14.80;;;13.40;;
35290;SDS011;21411;50.024;19.220;2023-05-17T06:50:19;14.00;;;12.80;;
35290;SDS011;21411;50.024;19.220;2023-05-17T06:52:45;15.10;;;13.80;;
35290;SDS011;21411;50.024;19.220;2023-05-17T06:55:12;14.30;;;12.90;;
35290;SDS011;21411;50.024;19.220;2023-05-17T06:57:38;13.80;;;12.50;;
35290;SDS011;21411;50.024;19.220;2023-05-17T07:00:05;13.30;;;12.20;;
35290;SDS011;21411;50.024;19.220;2023-05-17T07:02:35;13.20;;;12.00;;
35290;SDS011;21411;50.024;19.220;2023-05-17T07:05:05;13.20;;;12.00;;
35290;SDS011;21411;50.024;19.220;2023-05-17T07:07:32;12.80;;;11.60;;
35290;SDS011;21411;50.024;19.220;2023-05-17T07:09:59;12.80;;;11.70;;
35290;SDS011;21411;50.024;19.220;2023-05-17T07:12:25;11.90;;;10.80;;
35290;SDS011;21411;50.024;19.220;2023-05-17T07:14:52;14.40;;;13.00;;
35290;SDS011;21411;50.024;19.220;2023-05-17T07:17:19;13.50;;;12.20;;
35290;SDS011;21411;50.024;19.220;2023-05-17T07:19:45;13.70;;;12.40;;
35290;SDS011;21411;50.024;19.220;2023-05-17T07:22:16;13.30;;;12.10;;
35290;SDS011;21411;50.024;19.220;2023-05-17T07:24:43;12.00;;;10.90;;
35290;SDS011;21411;50.024;19.220;2023-05-17T07:27:11;14.20;;;12.90;;
35290;SDS011;21411;50.024;19.220;2023-05-17T07:29:38;13.50;;;12.30;;
35290;SDS011;21411;50.024;19.220;2023-05-17T07:32:04;13.40;;;12.00;;
35290;SDS011;21411;50.024;19.220;2023-05-17T07:34:31;12.20;;;11.10;;
35290;SDS011;21411;50.024;19.220;2023-05-17T07:36:58;13.20;;;12.10;;
35290;SDS011;21411;50.024;19.220;2023-05-17T07:39:24;11.90;;;10.90;;
35290;SDS011;21411;50.024;19.220;2023-05-17T07:41:51;11.60;;;10.50;;
35290;SDS011;21411;50.024;19.220;2023-05-17T07:44:17;11.60;;;10.60;;
35290;SDS011;21411;50.024;19.220;2023-05-17T07:46:44;10.40;;;9.50;;
35290;SDS011;21411;50.024;19.220;2023-05-17T07:49:10;10.60;;;9.60;;
35290;SDS011;21411;50.024;19.220;2023-05-17T07:51:37;9.10;;;8.40;;
35290;SDS011;21411;50.024;19.220;2023-05-17T07:54:03;10.00;;;9.10;;
35290;SDS011;21411;50.024;19.220;2023-05-17T07:56:30;10.90;;;9.90;;
35290;SDS011;21411;50.024;19.220;2023-05-17T07:58:58;12.20;;;11.10;;
35290;SDS011;21411;50.024;19.220;2023-05-17T08:01:25;10.00;;;9.20;;
35290;SDS011;21411;50.024;19.220;2023-05-17T08:03:52;9.90;;;8.90;;
35290;SDS011;21411;50.024;19.220;2023-05-17T08:06:19;11.20;;;10.30;;
35290;SDS011;21411;50.024;19.220;2023-05-17T08:08:45;12.00;;;10.80;;
35290;SDS011;21411;50.024;19.220;2023-05-17T08:11:12;11.60;;;10.70;;
35290;SDS011;21411;50.024;19.220;2023-05-17T08:13:40;9.60;;;8.70;;
35290;SDS011;21411;50.024;19.220;2023-05-17T08:16:06;9.80;;;8.90;;
35290;SDS011;21411;50.024;19.220;2023-05-17T08:18:35;9.80;;;8.90;;
35290;SDS011;21411;50.024;19.220;2023-05-17T08:21:02;9.20;;;8.50;;
35290;SDS011;21411;50.024;19.220;2023-05-17T08:23:29;9.80;;;9.00;;
35290;SDS011;21411;50.024;19.220;2023-05-17T08:25:56;8.20;;;7.40;;
35290;SDS011;21411;50.024;19.220;2023-05-17T08:28:22;8.00;;;7.40;;
35290;SDS011;21411;50.024;19.220;2023-05-17T08:30:49;8.90;;;8.00;;
35290;SDS011;21411;50.024;19.220;2023-05-17T08:33:15;9.80;;;8.10;;
35290;SDS011;21411;50.024;19.220;2023-05-17T08:35:42;10.40;;;9.00;;
35290;SDS011;21411;50.024;19.220;2023-05-17T08:38:08;11.30;;;10.20;;
35290;SDS011;21411;50.024;19.220;2023-05-17T08:40:35;12.80;;;11.70;;
35290;SDS011;21411;50.024;19.220;2023-05-17T08:43:01;13.80;;;12.70;;
35290;SDS011;21411;50.024;19.220;2023-05-17T08:45:28;14.40;;;13.00;;
35290;SDS011;21411;50.024;19.220;2023-05-17T08:47:56;13.40;;;12.20;;
35290;SDS011;21411;50.024;19.220;2023-05-17T08:50:23;15.10;;;13.70;;
35290;SDS011;21411;50.024;19.220;2023-05-17T08:52:54;13.20;;;12.10;;
35290;SDS011;21411;50.024;19.220;2023-05-17T08:55:21;14.00;;;12.70;;
35290;SDS011;21411;50.024;19.220;2023-05-17T08:57:50;14.20;;;12.90;;
35290;SDS011;21411;50.024;19.220;2023-05-17T09:00:18;14.40;;;12.90;;
35290;SDS011;21411;50.024;19.220;2023-05-17T09:02:47;13.70;;;12.50;;
35290;SDS011;21411;50.024;19.220;2023-05-17T09:05:13;15.80;;;14.20;;
35290;SDS011;21411;50.024;19.220;2023-05-17T09:07:40;13.50;;;12.20;;
35290;SDS011;21411;50.024;19.220;2023-05-17T09:10:08;15.30;;;13.80;;
35290;SDS011;21411;50.024;19.220;2023-05-17T09:12:35;13.40;;;12.20;;
35290;SDS011;21411;50.024;19.220;2023-05-17T09:15:11;14.90;;;13.40;;
35290;SDS011;21411;50.024;19.220;2023-05-17T09:17:39;14.70;;;13.40;;
35290;SDS011;21411;50.024;19.220;2023-05-17T09:20:07;15.90;;;14.40;;
35290;SDS011;21411;50.024;19.220;2023-05-17T09:22:34;15.70;;;14.40;;
35290;SDS011;21411;50.024;19.220;2023-05-17T09:25:02;14.80;;;13.40;;
35290;SDS011;21411;50.024;19.220;2023-05-17T09:27:30;15.40;;;13.60;;
35290;SDS011;21411;50.024;19.220;2023-05-17T09:29:57;15.00;;;13.50;;
35290;SDS011;21411;50.024;19.220;2023-05-17T09:32:23;14.30;;;13.00;;
35290;SDS011;21411;50.024;19.220;2023-05-17T09:34:50;14.90;;;13.70;;
35290;SDS011;21411;50.024;19.220;2023-05-17T09:37:18;14.90;;;13.60;;
35290;SDS011;21411;50.024;19.220;2023-05-17T09:39:45;16.40;;;14.90;;
35290;SDS011;21411;50.024;19.220;2023-05-17T09:42:13;14.60;;;13.30;;
35290;SDS011;21411;50.024;19.220;2023-05-17T09:47:22;14.60;;;13.30;;
35290;SDS011;21411;50.024;19.220;2023-05-17T09:49:50;13.40;;;12.10;;
35290;SDS011;21411;50.024;19.220;2023-05-17T09:52:17;14.50;;;12.90;;
35290;SDS011;21411;50.024;19.220;2023-05-17T09:54:55;11.30;;;10.30;;
35290;SDS011;21411;50.024;19.220;2023-05-17T09:57:25;10.30;;;9.40;;
35290;SDS011;21411;50.024;19.220;2023-05-17T09:59:54;9.90;;;8.90;;
35290;SDS011;21411;50.024;19.220;2023-05-17T10:02:30;10.10;;;9.30;;
35290;SDS011;21411;50.024;19.220;2023-05-17T10:05:00;10.60;;;9.70;;
35290;SDS011;21411;50.024;19.220;2023-05-17T10:07:35;10.80;;;9.90;;
35290;SDS011;21411;50.024;19.220;2023-05-17T10:10:03;11.90;;;10.80;;
35290;SDS011;21411;50.024;19.220;2023-05-17T10:12:31;10.90;;;9.90;;
35290;SDS011;21411;50.024;19.220;2023-05-17T10:15:04;11.00;;;10.10;;
35290;SDS011;21411;50.024;19.220;2023-05-17T10:17:32;9.00;;;8.20;;
35290;SDS011;21411;50.024;19.220;2023-05-17T10:20:00;9.90;;;9.00;;
35290;SDS011;21411;50.024;19.220;2023-05-17T10:22:31;10.60;;;9.70;;
35290;SDS011;21411;50.024;19.220;2023-05-17T10:24:58;10.10;;;9.10;;
35290;SDS011;21411;50.024;19.220;2023-05-17T10:27:25;11.10;;;10.10;;
35290;SDS011;21411;50.024;19.220;2023-05-17T10:29:53;10.70;;;9.70;;
35290;SDS011;21411;50.024;19.220;2023-05-17T10:32:20;11.00;;;9.90;;
35290;SDS011;21411;50.024;19.220;2023-05-17T10:34:51;11.40;;;10.30;;
35290;SDS011;21411;50.024;19.220;2023-05-17T10:37:19;12.40;;;11.10;;
35290;SDS011;21411;50.024;19.220;2023-05-17T10:39:46;12.00;;;10.80;;
35290;SDS011;21411;50.024;19.220;2023-05-17T10:42:14;12.10;;;11.00;;
35290;SDS011;21411;50.024;19.220;2023-05-17T10:44:42;12.80;;;11.70;;
35290;SDS011;21411;50.024;19.220;2023-05-17T10:47:09;16.50;;;14.80;;
35290;SDS011;21411;50.024;19.220;2023-05-17T10:49:37;14.00;;;12.90;;
35290;SDS011;21411;50.024;19.220;2023-05-17T10:52:17;15.30;;;13.80;;
35290;SDS011;21411;50.024;19.220;2023-05-17T10:54:47;15.40;;;13.90;;
35290;SDS011;21411;50.024;19.220;2023-05-17T10:57:19;14.60;;;13.20;;
35290;SDS011;21411;50.024;19.220;2023-05-17T11:00:00;13.40;;;12.20;;
35290;SDS011;21411;50.024;19.220;2023-05-17T11:02:29;14.40;;;12.80;;
35290;SDS011;21411;50.024;19.220;2023-05-17T11:04:57;12.90;;;11.80;;
35290;SDS011;21411;50.024;19.220;2023-05-17T11:07:26;12.60;;;11.20;;
35290;SDS011;21411;50.024;19.220;2023-05-17T11:12:38;13.40;;;12.30;;
35290;SDS011;21411;50.024;19.220;2023-05-17T11:15:08;18.90;;;16.50;;
35290;SDS011;21411;50.024;19.220;2023-05-17T11:22:42;21.20;;;19.00;;
35290;SDS011;21411;50.024;19.220;2023-05-17T11:25:15;16.90;;;15.10;;
35290;SDS011;21411;50.024;19.220;2023-05-17T11:27:43;18.50;;;16.70;;
35290;SDS011;21411;50.024;19.220;2023-05-17T11:33:05;18.40;;;16.50;;
35290;SDS011;21411;50.024;19.220;2023-05-17T11:35:32;17.40;;;15.70;;
35290;SDS011;21411;50.024;19.220;2023-05-17T11:38:11;19.40;;;17.40;;
35290;SDS011;21411;50.024;19.220;2023-05-17T11:40:40;19.70;;;17.60;;
35290;SDS011;21411;50.024;19.220;2023-05-17T11:45:53;22.00;;;19.80;;
35290;SDS011;21411;50.024;19.220;2023-05-17T11:48:22;22.40;;;20.20;;
35290;SDS011;21411;50.024;19.220;2023-05-17T11:50:52;23.00;;;20.70;;
35290;SDS011;21411;50.024;19.220;2023-05-17T11:53:19;26.10;;;21.10;;
35290;SDS011;21411;50.024;19.220;2023-05-17T11:55:50;20.70;;;18.70;;
35290;SDS011;21411;50.024;19.220;2023-05-17T11:58:24;22.80;;;20.50;;
35290;SDS011;21411;50.024;19.220;2023-05-17T12:00:55;21.50;;;19.40;;
35290;SDS011;21411;50.024;19.220;2023-05-17T12:06:07;20.40;;;18.30;;
35290;SDS011;21411;50.024;19.220;2023-05-17T12:08:37;21.70;;;19.40;;
35290;SDS011;21411;50.024;19.220;2023-05-17T12:11:05;22.10;;;20.00;;
35290;SDS011;21411;50.024;19.220;2023-05-17T12:13:33;22.60;;;20.30;;
35290;SDS011;21411;50.024;19.220;2023-05-17T12:16:01;22.60;;;20.20;;
35290;SDS011;21411;50.024;19.220;2023-05-17T12:21:04;24.60;;;22.30;;
35290;SDS011;21411;50.024;19.220;2023-05-17T12:23:32;22.80;;;20.50;;
35290;SDS011;21411;50.024;19.220;2023-05-17T12:26:04;24.90;;;22.50;;
35290;SDS011;21411;50.024;19.220;2023-05-17T12:28:31;22.70;;;19.90;;
35290;SDS011;21411;50.024;19.220;2023-05-17T12:30:58;20.80;;;18.40;;
35290;SDS011;21411;50.024;19.220;2023-05-17T12:35:59;20.40;;;18.40;;
35290;SDS011;21411;50.024;19.220;2023-05-17T12:38:27;18.60;;;16.80;;
35290;SDS011;21411;50.024;19.220;2023-05-17T12:41:01;17.90;;;16.20;;
35290;SDS011;21411;50.024;19.220;2023-05-17T12:43:31;19.80;;;17.90;;
35290;SDS011;21411;50.024;19.220;2023-05-17T12:46:04;19.50;;;17.70;;
35290;SDS011;21411;50.024;19.220;2023-05-17T12:48:39;21.30;;;18.50;;
35290;SDS011;21411;50.024;19.220;2023-05-17T12:51:10;20.20;;;18.20;;
35290;SDS011;21411;50.024;19.220;2023-05-17T12:53:42;18.80;;;16.80;;
35290;SDS011;21411;50.024;19.220;2023-05-17T12:56:23;17.80;;;16.00;;
35290;SDS011;21411;50.024;19.220;2023-05-17T12:59:03;18.00;;;16.10;;
35290;SDS011;21411;50.024;19.220;2023-05-17T13:01:38;17.80;;;14.20;;
35290;SDS011;21411;50.024;19.220;2023-05-17T13:04:07;15.40;;;13.90;;
35290;SDS011;21411;50.024;19.220;2023-05-17T13:06:43;15.00;;;13.50;;
35290;SDS011;21411;50.024;19.220;2023-05-17T13:09:20;14.00;;;12.60;;
35290;SDS011;21411;50.024;19.220;2023-05-17T13:11:49;14.20;;;12.70;;
35290;SDS011;21411;50.024;19.220;2023-05-17T13:14:36;11.70;;;9.90;;
35290;SDS011;21411;50.024;19.220;2023-05-17T13:17:04;13.60;;;11.00;;
35290;SDS011;21411;50.024;19.220;2023-05-17T13:19:31;11.10;;;9.50;;
35290;SDS011;21411;50.024;19.220;2023-05-17T13:21:58;11.90;;;10.30;;
35290;SDS011;21411;50.024;19.220;2023-05-17T13:24:25;14.30;;;10.90;;
35290;SDS011;21411;50.024;19.220;2023-05-17T13:26:53;11.60;;;9.80;;
35290;SDS011;21411;50.024;19.220;2023-05-17T13:29:19;14.50;;;9.50;;
35290;SDS011;21411;50.024;19.220;2023-05-17T13:31:46;11.80;;;10.10;;
35290;SDS011;21411;50.024;19.220;2023-05-17T13:34:12;12.20;;;10.00;;
35290;SDS011;21411;50.024;19.220;2023-05-17T13:36:39;12.60;;;10.70;;
35290;SDS011;21411;50.024;19.220;2023-05-17T13:39:06;11.40;;;9.70;;
35290;SDS011;21411;50.024;19.220;2023-05-17T13:41:32;12.30;;;10.40;;
35290;SDS011;21411;50.024;19.220;2023-05-17T13:43:59;12.90;;;9.40;;
35290;SDS011;21411;50.024;19.220;2023-05-17T13:46:26;13.00;;;10.70;;
35290;SDS011;21411;50.024;19.220;2023-05-17T13:48:52;10.80;;;9.40;;
35290;SDS011;21411;50.024;19.220;2023-05-17T13:51:19;11.10;;;9.00;;
35290;SDS011;21411;50.024;19.220;2023-05-17T13:53:45;11.10;;;8.60;;
35290;SDS011;21411;50.024;19.220;2023-05-17T13:56:12;12.00;;;8.50;;
35290;SDS011;21411;50.024;19.220;2023-05-17T13:58:38;10.60;;;7.60;;
35290;SDS011;21411;50.024;19.220;2023-05-17T14:01:05;15.00;;;8.30;;
35290;SDS011;21411;50.024;19.220;2023-05-17T14:03:31;12.10;;;8.80;;
35290;SDS011;21411;50.024;19.220;2023-05-17T14:05:58;10.10;;;8.90;;
35290;SDS011;21411;50.024;19.220;2023-05-17T14:08:24;12.80;;;9.90;;
35290;SDS011;21411;50.024;19.220;2023-05-17T14:10:51;12.60;;;10.30;;
35290;SDS011;21411;50.024;19.220;2023-05-17T14:13:18;13.90;;;10.30;;
35290;SDS011;21411;50.024;19.220;2023-05-17T14:15:45;14.10;;;10.80;;
35290;SDS011;21411;50.024;19.220;2023-05-17T14:18:11;14.90;;;11.20;;
35290;SDS011;21411;50.024;19.220;2023-05-17T14:20:38;14.80;;;12.10;;
35290;SDS011;21411;50.024;19.220;2023-05-17T14:23:04;11.80;;;9.70;;
35290;SDS011;21411;50.024;19.220;2023-05-17T14:25:31;13.30;;;9.60;;
35290;SDS011;21411;50.024;19.220;2023-05-17T14:27:58;11.40;;;8.40;;
35290;SDS011;21411;50.024;19.220;2023-05-17T14:30:24;14.50;;;9.50;;
35290;SDS011;21411;50.024;19.220;2023-05-17T14:32:51;10.80;;;8.70;;
35290;SDS011;21411;50.024;19.220;2023-05-17T14:35:17;9.90;;;9.00;;
35290;SDS011;21411;50.024;19.220;2023-05-17T14:37:44;13.50;;;10.50;;
35290;SDS011;21411;50.024;19.220;2023-05-17T14:40:11;13.10;;;9.60;;
35290;SDS011;21411;50.024;19.220;2023-05-17T14:42:38;14.00;;;10.30;;
35290;SDS011;21411;50.024;19.220;2023-05-17T14:45:05;13.10;;;10.00;;
35290;SDS011;21411;50.024;19.220;2023-05-17T14:47:32;12.00;;;9.30;;
35290;SDS011;21411;50.024;19.220;2023-05-17T14:49:59;14.90;;;11.50;;
35290;SDS011;21411;50.024;19.220;2023-05-17T14:52:26;14.60;;;11.40;;